sensor_id;sensor_type;location;lat;lon;timestamp;pressure;altitude;pressure_sealevel;temperature;humidity
48874;BME280;66155;46.204;5.220;2023-07-09T00:04:47;98812.97;;;28.92;39.56
48874;BME280;66155;46.204;5.220;2023-07-09T00:09:47;98818.72;;;28.94;39.57
48874;BME280;66155;46.204;5.220;2023-07-09T00:14:48;98809.13;;;28.89;39.73
48874;BME280;66155;46.204;5.220;2023-07-09T00:19:49;98810.28;;;28.92;39.67
48874;BME280;66155;46.204;5.220;2023-07-09T00:24:50;98809.56;;;28.95;40.01
48874;BME280;66155;46.204;5.220;2023-07-09T00:29:51;98807.16;;;28.86;40.16
48874;BME280;66155;46.204;5.220;2023-07-09T00:34:52;98801.41;;;28.84;40.19
48874;BME280;66155;46.204;5.220;2023-07-09T00:39:54;98797.53;;;28.81;40.27
48874;BME280;66155;46.204;5.220;2023-07-09T00:44:55;98797.09;;;28.76;40.62
48874;BME280;66155;46.204;5.220;2023-07-09T00:50:02;98818.50;;;28.72;40.40
48874;BME280;66155;46.204;5.220;2023-07-09T00:55:13;98818.09;;;28.70;41.04
48874;BME280;66155;46.204;5.220;2023-07-09T01:00:16;98814.16;;;28.60;40.88
48874;BME280;66155;46.204;5.220;2023-07-09T01:05:19;98816.03;;;28.60;40.66
48874;BME280;66155;46.204;5.220;2023-07-09T01:10:20;98818.38;;;28.61;40.93
48874;BME280;66155;46.204;5.220;2023-07-09T01:15:20;98811.34;;;28.53;40.85
48874;BME280;66155;46.204;5.220;2023-07-09T01:20:24;98804.03;;;28.50;40.92
48874;BME280;66155;46.204;5.220;2023-07-09T01:31:23;98808.91;;;28.41;40.73
48874;BME280;66155;46.204;5.220;2023-07-09T01:36:27;98820.78;;;28.43;41.03
48874;BME280;66155;46.204;5.220;2023-07-09T01:41:28;98819.94;;;28.36;41.05
48874;BME280;66155;46.204;5.220;2023-07-09T01:46:29;98815.63;;;28.31;40.92
48874;BME280;66155;46.204;5.220;2023-07-09T01:51:30;98808.00;;;28.33;41.23
48874;BME280;66155;46.204;5.220;2023-07-09T01:56:31;98823.78;;;28.38;41.23
48874;BME280;66155;46.204;5.220;2023-07-09T02:01:32;98816.44;;;28.35;41.26
48874;BME280;66155;46.204;5.220;2023-07-09T02:06:33;98814.84;;;28.27;41.48
48874;BME280;66155;46.204;5.220;2023-07-09T02:11:34;98808.91;;;28.14;41.30
48874;BME280;66155;46.204;5.220;2023-07-09T02:16:34;98820.44;;;28.18;41.42
48874;BME280;66155;46.204;5.220;2023-07-09T02:21:35;98824.16;;;28.10;41.72
48874;BME280;66155;46.204;5.220;2023-07-09T02:26:35;98826.56;;;27.92;42.06
48874;BME280;66155;46.204;5.220;2023-07-09T02:31:36;98818.03;;;27.63;42.82
48874;BME280;66155;46.204;5.220;2023-07-09T02:36:36;98823.16;;;27.49;43.07
48874;BME280;66155;46.204;5.220;2023-07-09T02:41:37;98830.25;;;27.61;42.95
48874;BME280;66155;46.204;5.220;2023-07-09T02:46:37;98824.50;;;27.62;42.55
48874;BME280;66155;46.204;5.220;2023-07-09T02:51:38;98836.00;;;27.63;42.95
48874;BME280;66155;46.204;5.220;2023-07-09T02:56:38;98829.03;;;27.58;42.90
48874;BME280;66155;46.204;5.220;2023-07-09T03:01:39;98850.94;;;27.64;43.02
48874;BME280;66155;46.204;5.220;2023-07-09T03:06:40;98855.09;;;27.61;43.40
48874;BME280;66155;46.204;5.220;2023-07-09T03:11:41;98858.47;;;27.35;43.94
48874;BME280;66155;46.204;5.220;2023-07-09T03:16:41;98866.00;;;27.29;44.27
48874;BME280;66155;46.204;5.220;2023-07-09T03:21:41;98855.72;;;27.31;44.30
48874;BME280;66155;46.204;5.220;2023-07-09T03:26:42;98859.22;;;27.36;44.38
48874;BME280;66155;46.204;5.220;2023-07-09T03:31:43;98858.47;;;27.35;44.70
48874;BME280;66155;46.204;5.220;2023-07-09T03:36:44;98859.94;;;27.33;44.73
48874;BME280;66155;46.204;5.220;2023-07-09T03:41:45;98861.13;;;27.35;44.88
48874;BME280;66155;46.204;5.220;2023-07-09T03:46:45;98857.69;;;27.35;44.89
48874;BME280;66155;46.204;5.220;2023-07-09T03:51:46;98865.38;;;27.36;45.27
48874;BME280;66155;46.204;5.220;2023-07-09T03:56:46;98863.59;;;27.24;45.33
48874;BME280;66155;46.204;5.220;2023-07-09T04:01:47;98870.78;;;27.20;45.52
48874;BME280;66155;46.204;5.220;2023-07-09T04:06:47;98873.38;;;27.17;46.04
48874;BME280;66155;46.204;5.220;2023-07-09T04:11:48;98856.75;;;27.07;46.23
48874;BME280;66155;46.204;5.220;2023-07-09T04:16:49;98872.44;;;27.09;46.12
48874;BME280;66155;46.204;5.220;2023-07-09T04:21:49;98857.13;;;27.06;46.13
48874;BME280;66155;46.204;5.220;2023-07-09T04:26:50;98874.06;;;27.13;46.11
48874;BME280;66155;46.204;5.220;2023-07-09T04:31:56;98858.50;;;27.19;45.85
48874;BME280;66155;46.204;5.220;2023-07-09T04:36:57;98848.97;;;27.18;46.05
48874;BME280;66155;46.204;5.220;2023-07-09T04:41:57;98850.84;;;27.18;45.99
48874;BME280;66155;46.204;5.220;2023-07-09T04:46:58;98846.63;;;27.17;45.73
48874;BME280;66155;46.204;5.220;2023-07-09T04:51:59;98846.50;;;27.09;46.40
48874;BME280;66155;46.204;5.220;2023-07-09T04:57:00;98851.53;;;27.15;46.14
48874;BME280;66155;46.204;5.220;2023-07-09T05:02:02;98847.69;;;27.12;46.07
48874;BME280;66155;46.204;5.220;2023-07-09T05:07:04;98847.63;;;27.28;45.80
48874;BME280;66155;46.204;5.220;2023-07-09T05:12:05;98859.88;;;27.29;45.72
48874;BME280;66155;46.204;5.220;2023-07-09T05:17:06;98851.25;;;27.20;46.15
48874;BME280;66155;46.204;5.220;2023-07-09T05:22:07;98847.47;;;27.21;46.13
48874;BME280;66155;46.204;5.220;2023-07-09T05:27:07;98850.63;;;27.26;46.27
48874;BME280;66155;46.204;5.220;2023-07-09T05:32:09;98852.81;;;27.21;46.25
48874;BME280;66155;46.204;5.220;2023-07-09T05:37:09;98854.53;;;27.29;46.55
48874;BME280;66155;46.204;5.220;2023-07-09T05:42:10;98859.88;;;27.29;46.51
48874;BME280;66155;46.204;5.220;2023-07-09T05:47:10;98852.00;;;27.36;46.51
48874;BME280;66155;46.204;5.220;2023-07-09T05:52:11;98864.63;;;27.39;46.59
48874;BME280;66155;46.204;5.220;2023-07-09T05:57:11;98861.75;;;27.48;46.43
48874;BME280;66155;46.204;5.220;2023-07-09T06:02:18;98858.00;;;27.53;46.10
48874;BME280;66155;46.204;5.220;2023-07-09T06:07:18;98850.69;;;27.49;45.87
48874;BME280;66155;46.204;5.220;2023-07-09T06:12:19;98861.22;;;27.62;45.91
48874;BME280;66155;46.204;5.220;2023-07-09T06:17:19;98863.59;;;27.67;45.73
48874;BME280;66155;46.204;5.220;2023-07-09T06:22:20;98871.81;;;27.78;45.92
48874;BME280;66155;46.204;5.220;2023-07-09T06:27:20;98883.78;;;27.84;45.75
48874;BME280;66155;46.204;5.220;2023-07-09T06:32:20;98885.88;;;27.94;45.19
48874;BME280;66155;46.204;5.220;2023-07-09T06:37:21;98902.81;;;27.98;45.50
48874;BME280;66155;46.204;5.220;2023-07-09T06:42:22;98897.19;;;28.07;45.30
48874;BME280;66155;46.204;5.220;2023-07-09T06:47:22;98910.66;;;28.11;45.33
48874;BME280;66155;46.204;5.220;2023-07-09T06:52:23;98901.00;;;28.06;45.50
48874;BME280;66155;46.204;5.220;2023-07-09T06:57:23;98898.38;;;28.10;45.72
48874;BME280;66155;46.204;5.220;2023-07-09T07:02:24;98907.69;;;28.19;45.58
48874;BME280;66155;46.204;5.220;2023-07-09T07:07:24;98901.69;;;28.26;45.80
48874;BME280;66155;46.204;5.220;2023-07-09T07:12:27;98915.25;;;28.37;45.73
48874;BME280;66155;46.204;5.220;2023-07-09T07:17:29;98908.91;;;28.49;45.82
48874;BME280;66155;46.204;5.220;2023-07-09T07:22:29;98924.06;;;28.60;45.80
48874;BME280;66155;46.204;5.220;2023-07-09T07:27:30;98920.72;;;28.71;45.58
48874;BME280;66155;46.204;5.220;2023-07-09T07:32:31;98918.53;;;28.76;45.59
48874;BME280;66155;46.204;5.220;2023-07-09T07:37:31;98914.84;;;28.88;45.20
48874;BME280;66155;46.204;5.220;2023-07-09T07:42:32;98925.31;;;28.97;44.89
48874;BME280;66155;46.204;5.220;2023-07-09T07:47:32;98924.94;;;28.98;44.70
48874;BME280;66155;46.204;5.220;2023-07-09T07:52:33;98921.31;;;29.14;44.79
48874;BME280;66155;46.204;5.220;2023-07-09T07:57:37;98919.47;;;29.18;44.56
48874;BME280;66155;46.204;5.220;2023-07-09T08:02:37;98922.94;;;29.22;43.97
48874;BME280;66155;46.204;5.220;2023-07-09T08:07:38;98925.47;;;29.42;43.77
48874;BME280;66155;46.204;5.220;2023-07-09T08:12:39;98929.44;;;29.55;43.62
48874;BME280;66155;46.204;5.220;2023-07-09T08:17:39;98918.09;;;29.69;43.43
48874;BME280;66155;46.204;5.220;2023-07-09T08:22:40;98910.16;;;29.80;43.04
48874;BME280;66155;46.204;5.220;2023-07-09T08:27:40;98910.31;;;29.98;42.89
48874;BME280;66155;46.204;5.220;2023-07-09T08:32:41;98902.75;;;30.14;42.63
48874;BME280;66155;46.204;5.220;2023-07-09T08:37:41;98900.56;;;30.30;42.51
48874;BME280;66155;46.204;5.220;2023-07-09T08:42:46;98907.59;;;30.42;42.02
48874;BME280;66155;46.204;5.220;2023-07-09T08:48:03;98894.88;;;30.36;40.48
48874;BME280;66155;46.204;5.220;2023-07-09T08:53:10;98893.03;;;30.47;40.88
48874;BME280;66155;46.204;5.220;2023-07-09T08:58:21;98902.34;;;30.64;40.32
48874;BME280;66155;46.204;5.220;2023-07-09T09:09:05;98893.16;;;30.68;39.22
48874;BME280;66155;46.204;5.220;2023-07-09T09:14:31;98890.09;;;30.74;38.71
48874;BME280;66155;46.204;5.220;2023-07-09T09:19:37;98881.28;;;30.84;38.85
48874;BME280;66155;46.204;5.220;2023-07-09T09:24:52;98887.19;;;31.00;38.62
48874;BME280;66155;46.204;5.220;2023-07-09T09:29:54;98882.97;;;31.14;39.03
48874;BME280;66155;46.204;5.220;2023-07-09T09:34:55;98885.72;;;31.28;38.54
48874;BME280;66155;46.204;5.220;2023-07-09T09:39:56;98896.50;;;31.39;38.23
48874;BME280;66155;46.204;5.220;2023-07-09T09:44:58;98879.22;;;31.43;38.13
48874;BME280;66155;46.204;5.220;2023-07-09T09:49:58;98882.72;;;31.62;37.79
48874;BME280;66155;46.204;5.220;2023-07-09T09:55:08;98882.34;;;31.81;37.08
48874;BME280;66155;46.204;5.220;2023-07-09T10:00:14;98889.66;;;31.95;36.89
48874;BME280;66155;46.204;5.220;2023-07-09T10:05:25;98879.66;;;32.14;36.63
48874;BME280;66155;46.204;5.220;2023-07-09T10:10:30;98885.03;;;32.35;36.29
48874;BME280;66155;46.204;5.220;2023-07-09T10:15:48;98888.09;;;32.45;35.90
48874;BME280;66155;46.204;5.220;2023-07-09T10:21:02;98878.81;;;32.53;36.10
48874;BME280;66155;46.204;5.220;2023-07-09T10:26:12;98883.41;;;32.70;35.77
48874;BME280;66155;46.204;5.220;2023-07-09T10:31:21;98891.06;;;32.90;35.77
48874;BME280;66155;46.204;5.220;2023-07-09T10:42:02;98884.03;;;33.07;35.15
48874;BME280;66155;46.204;5.220;2023-07-09T10:47:53;98877.44;;;33.11;35.00
48874;BME280;66155;46.204;5.220;2023-07-09T10:52:36;98880.09;;;33.33;34.82
48874;BME280;66155;46.204;5.220;2023-07-09T11:03:38;98893.38;;;33.65;33.07
48874;BME280;66155;46.204;5.220;2023-07-09T11:08:41;98879.84;;;33.69;33.65
48874;BME280;66155;46.204;5.220;2023-07-09T11:13:45;98880.66;;;33.66;33.11
48874;BME280;66155;46.204;5.220;2023-07-09T11:18:55;98883.28;;;33.73;32.98
48874;BME280;66155;46.204;5.220;2023-07-09T11:24:00;98874.03;;;33.74;33.17
48874;BME280;66155;46.204;5.220;2023-07-09T11:44:45;98872.72;;;33.89;33.17
48874;BME280;66155;46.204;5.220;2023-07-09T11:55:25;98868.94;;;34.25;32.48
48874;BME280;66155;46.204;5.220;2023-07-09T12:00:28;98863.03;;;34.37;32.72
48874;BME280;66155;46.204;5.220;2023-07-09T12:05:30;98852.53;;;34.43;32.73
48874;BME280;66155;46.204;5.220;2023-07-09T12:10:33;98844.19;;;34.64;32.61
48874;BME280;66155;46.204;5.220;2023-07-09T12:15:34;98854.69;;;34.93;32.53
48874;BME280;66155;46.204;5.220;2023-07-09T12:20:35;98844.44;;;35.04;32.54
48874;BME280;66155;46.204;5.220;2023-07-09T12:25:36;98852.03;;;35.17;32.50
48874;BME280;66155;46.204;5.220;2023-07-09T12:30:37;98833.88;;;35.14;32.52
48874;BME280;66155;46.204;5.220;2023-07-09T12:35:37;98837.69;;;35.20;32.63
48874;BME280;66155;46.204;5.220;2023-07-09T12:40:41;98832.66;;;35.18;32.57
48874;BME280;66155;46.204;5.220;2023-07-09T12:45:41;98833.34;;;35.26;32.75
48874;BME280;66155;46.204;5.220;2023-07-09T12:50:49;98832.31;;;35.44;32.45
48874;BME280;66155;46.204;5.220;2023-07-09T12:55:50;98819.72;;;35.57;32.12
48874;BME280;66155;46.204;5.220;2023-07-09T13:00:53;98812.06;;;35.75;32.08
48874;BME280;66155;46.204;5.220;2023-07-09T13:06:00;98803.69;;;35.90;31.78
48874;BME280;66155;46.204;5.220;2023-07-09T13:11:00;98797.16;;;36.07;31.75
48874;BME280;66155;46.204;5.220;2023-07-09T13:16:01;98796.16;;;36.21;31.45
48874;BME280;66155;46.204;5.220;2023-07-09T13:21:15;98784.88;;;36.43;30.31
48874;BME280;66155;46.204;5.220;2023-07-09T13:26:16;98778.16;;;36.67;30.30
48874;BME280;66155;46.204;5.220;2023-07-09T13:31:19;98768.41;;;36.70;29.83
48874;BME280;66155;46.204;5.220;2023-07-09T13:36:20;98762.41;;;36.79;28.90
48874;BME280;66155;46.204;5.220;2023-07-09T13:41:21;98779.81;;;36.81;28.36
48874;BME280;66155;46.204;5.220;2023-07-09T13:46:23;98774.44;;;36.41;27.10
48874;BME280;66155;46.204;5.220;2023-07-09T13:51:32;98768.88;;;36.65;27.05
48874;BME280;66155;46.204;5.220;2023-07-09T13:56:33;98757.28;;;36.64;27.25
48874;BME280;66155;46.204;5.220;2023-07-09T14:01:34;98753.59;;;36.91;27.03
48874;BME280;66155;46.204;5.220;2023-07-09T14:06:34;98751.13;;;37.13;27.00
48874;BME280;66155;46.204;5.220;2023-07-09T14:11:47;98750.31;;;37.16;26.29
48874;BME280;66155;46.204;5.220;2023-07-09T14:16:48;98751.41;;;37.35;25.97
48874;BME280;66155;46.204;5.220;2023-07-09T14:21:50;98743.16;;;37.39;25.79
48874;BME280;66155;46.204;5.220;2023-07-09T14:26:53;98742.75;;;37.40;25.79
48874;BME280;66155;46.204;5.220;2023-07-09T14:31:53;98744.91;;;37.62;25.90
48874;BME280;66155;46.204;5.220;2023-07-09T14:36:56;98732.91;;;37.76;25.31
48874;BME280;66155;46.204;5.220;2023-07-09T14:41:57;98742.53;;;37.64;25.19
48874;BME280;66155;46.204;5.220;2023-07-09T14:47:00;98754.97;;;37.16;25.19
48874;BME280;66155;46.204;5.220;2023-07-09T14:52:01;98762.59;;;36.88;25.74
48874;BME280;66155;46.204;5.220;2023-07-09T14:57:01;98749.84;;;36.68;26.08
48874;BME280;66155;46.204;5.220;2023-07-09T15:02:18;98764.63;;;36.84;26.17
48874;BME280;66155;46.204;5.220;2023-07-09T15:07:19;98765.50;;;37.14;25.78
48874;BME280;66155;46.204;5.220;2023-07-09T15:12:24;98752.84;;;37.40;25.70
48874;BME280;66155;46.204;5.220;2023-07-09T15:17:25;98741.63;;;37.38;26.15
48874;BME280;66155;46.204;5.220;2023-07-09T15:22:31;98733.16;;;37.03;26.52
48874;BME280;66155;46.204;5.220;2023-07-09T15:27:32;98755.97;;;36.72;27.02
48874;BME280;66155;46.204;5.220;2023-07-09T15:32:32;98752.41;;;36.56;27.29
48874;BME280;66155;46.204;5.220;2023-07-09T15:37:33;98739.31;;;36.34;27.44
48874;BME280;66155;46.204;5.220;2023-07-09T15:42:33;98754.03;;;36.13;27.79
48874;BME280;66155;46.204;5.220;2023-07-09T15:47:34;98733.13;;;35.93;27.70
48874;BME280;66155;46.204;5.220;2023-07-09T15:52:34;98738.88;;;35.75;28.01
48874;BME280;66155;46.204;5.220;2023-07-09T15:57:35;98749.31;;;35.53;28.69
48874;BME280;66155;46.204;5.220;2023-07-09T16:02:36;98742.19;;;35.39;29.44
48874;BME280;66155;46.204;5.220;2023-07-09T16:07:37;98730.13;;;35.20;29.65
48874;BME280;66155;46.204;5.220;2023-07-09T16:12:37;98748.47;;;35.09;30.30
48874;BME280;66155;46.204;5.220;2023-07-09T16:17:38;98744.38;;;34.97;30.80
48874;BME280;66155;46.204;5.220;2023-07-09T16:22:39;98736.78;;;34.89;31.07
48874;BME280;66155;46.204;5.220;2023-07-09T16:27:42;98738.03;;;34.84;31.51
48874;BME280;66155;46.204;5.220;2023-07-09T16:32:43;98755.13;;;34.77;31.97
48874;BME280;66155;46.204;5.220;2023-07-09T16:37:46;98735.50;;;34.70;31.91
48874;BME280;66155;46.204;5.220;2023-07-09T16:42:48;98722.50;;;34.57;32.27
48874;BME280;66155;46.204;5.220;2023-07-09T16:47:49;98752.31;;;34.54;32.28
48874;BME280;66155;46.204;5.220;2023-07-09T16:52:53;98767.31;;;34.58;32.73
48874;BME280;66155;46.204;5.220;2023-07-09T16:57:56;98773.50;;;34.59;32.49
48874;BME280;66155;46.204;5.220;2023-07-09T17:02:57;98771.13;;;34.64;32.48
48874;BME280;66155;46.204;5.220;2023-07-09T17:07:58;98770.28;;;34.67;32.66
48874;BME280;66155;46.204;5.220;2023-07-09T17:13:00;98765.66;;;34.68;32.50
48874;BME280;66155;46.204;5.220;2023-07-09T17:18:01;98762.78;;;34.82;32.17
48874;BME280;66155;46.204;5.220;2023-07-09T17:23:02;98754.03;;;34.71;32.42
48874;BME280;66155;46.204;5.220;2023-07-09T17:28:13;98740.38;;;34.51;31.65
48874;BME280;66155;46.204;5.220;2023-07-09T17:33:14;98732.00;;;34.42;32.24
48874;BME280;66155;46.204;5.220;2023-07-09T17:38:20;98732.22;;;34.24;32.39
48874;BME280;66155;46.204;5.220;2023-07-09T17:43:24;98727.75;;;34.41;31.93
48874;BME280;66155;46.204;5.220;2023-07-09T17:48:30;98739.88;;;34.87;31.94
48874;BME280;66155;46.204;5.220;2023-07-09T17:53:33;98755.59;;;35.23;31.26
48874;BME280;66155;46.204;5.220;2023-07-09T17:58:36;98759.81;;;35.75;30.72
48874;BME280;66155;46.204;5.220;2023-07-09T18:03:38;98762.91;;;36.37;30.26
48874;BME280;66155;46.204;5.220;2023-07-09T18:08:38;98759.97;;;37.01;29.42
48874;BME280;66155;46.204;5.220;2023-07-09T18:13:38;98758.97;;;37.44;29.14
48874;BME280;66155;46.204;5.220;2023-07-09T18:18:39;98767.25;;;36.87;30.02
48874;BME280;66155;46.204;5.220;2023-07-09T18:23:39;98775.75;;;37.06;29.95
48874;BME280;66155;46.204;5.220;2023-07-09T18:28:43;98767.78;;;36.99;29.82
48874;BME280;66155;46.204;5.220;2023-07-09T18:33:44;98769.63;;;36.85;29.86
48874;BME280;66155;46.204;5.220;2023-07-09T18:38:44;98772.81;;;36.44;30.01
48874;BME280;66155;46.204;5.220;2023-07-09T18:43:45;98781.41;;;36.22;30.03
48874;BME280;66155;46.204;5.220;2023-07-09T18:48:46;98791.81;;;36.04;30.43
48874;BME280;66155;46.204;5.220;2023-07-09T18:53:47;98796.03;;;35.61;31.21
48874;BME280;66155;46.204;5.220;2023-07-09T18:58:47;98796.91;;;35.31;31.95
48874;BME280;66155;46.204;5.220;2023-07-09T19:03:47;98811.81;;;34.88;34.43
48874;BME280;66155;46.204;5.220;2023-07-09T19:08:48;98811.59;;;34.41;36.13
48874;BME280;66155;46.204;5.220;2023-07-09T19:13:48;98812.16;;;34.25;36.81
48874;BME280;66155;46.204;5.220;2023-07-09T19:18:48;98810.03;;;34.05;37.32
48874;BME280;66155;46.204;5.220;2023-07-09T19:23:49;98810.66;;;33.79;38.08
48874;BME280;66155;46.204;5.220;2023-07-09T19:28:50;98806.63;;;33.52;38.75
48874;BME280;66155;46.204;5.220;2023-07-09T19:33:50;98825.00;;;33.12;39.66
48874;BME280;66155;46.204;5.220;2023-07-09T19:38:52;98832.47;;;32.90;40.03
48874;BME280;66155;46.204;5.220;2023-07-09T19:43:53;98833.34;;;32.69;39.93
48874;BME280;66155;46.204;5.220;2023-07-09T19:48:55;98846.06;;;32.54;40.09
48874;BME280;66155;46.204;5.220;2023-07-09T19:53:55;98857.25;;;32.46;39.96
48874;BME280;66155;46.204;5.220;2023-07-09T19:58:56;98854.19;;;32.40;40.49
48874;BME280;66155;46.204;5.220;2023-07-09T20:03:56;98864.25;;;32.32;41.25
48874;BME280;66155;46.204;5.220;2023-07-09T20:08:57;98865.41;;;32.20;41.89
48874;BME280;66155;46.204;5.220;2023-07-09T20:13:58;98862.72;;;32.10;41.99
48874;BME280;66155;46.204;5.220;2023-07-09T20:18:59;98879.66;;;32.07;42.03
48874;BME280;66155;46.204;5.220;2023-07-09T20:24:00;98886.59;;;31.97;42.84
48874;BME280;66155;46.204;5.220;2023-07-09T20:29:01;98905.81;;;31.81;43.76
48874;BME280;66155;46.204;5.220;2023-07-09T20:34:13;98903.88;;;31.56;45.25
48874;BME280;66155;46.204;5.220;2023-07-09T20:39:16;98901.56;;;31.55;44.32
48874;BME280;66155;46.204;5.220;2023-07-09T20:44:22;98905.72;;;31.23;46.02
48874;BME280;66155;46.204;5.220;2023-07-09T20:49:34;98915.28;;;31.14;46.43
48874;BME280;66155;46.204;5.220;2023-07-09T20:54:40;98923.34;;;31.17;45.76
48874;BME280;66155;46.204;5.220;2023-07-09T20:59:40;98920.66;;;31.14;45.58
48874;BME280;66155;46.204;5.220;2023-07-09T21:04:41;98933.69;;;31.04;46.16
48874;BME280;66155;46.204;5.220;2023-07-09T21:09:41;98930.09;;;30.82;46.68
48874;BME280;66155;46.204;5.220;2023-07-09T21:14:45;98951.84;;;30.59;47.56
48874;BME280;66155;46.204;5.220;2023-07-09T21:19:46;98958.66;;;30.42;47.95
48874;BME280;66155;46.204;5.220;2023-07-09T21:24:49;98956.72;;;30.39;48.22
48874;BME280;66155;46.204;5.220;2023-07-09T21:29:50;98960.94;;;30.37;47.81
48874;BME280;66155;46.204;5.220;2023-07-09T21:34:57;98970.41;;;30.27;48.33
48874;BME280;66155;46.204;5.220;2023-07-09T21:39:58;98979.63;;;30.22;47.94
48874;BME280;66155;46.204;5.220;2023-07-09T21:44:59;98986.53;;;30.23;48.27
48874;BME280;66155;46.204;5.220;2023-07-09T21:49:59;98986.09;;;30.18;48.29
48874;BME280;66155;46.204;5.220;2023-07-09T21:55:01;98989.50;;;30.14;48.44
48874;BME280;66155;46.204;5.220;2023-07-09T22:00:02;99004.16;;;30.21;48.14
48874;BME280;66155;46.204;5.220;2023-07-09T22:05:19;98997.19;;;30.12;48.27
48874;BME280;66155;46.204;5.220;2023-07-09T22:10:26;99014.78;;;30.06;48.44
48874;BME280;66155;46.204;5.220;2023-07-09T22:15:27;99012.09;;;30.06;48.30
48874;BME280;66155;46.204;5.220;2023-07-09T22:20:28;99015.16;;;30.05;48.82
48874;BME280;66155;46.204;5.220;2023-07-09T22:25:29;99008.13;;;29.93;48.96
48874;BME280;66155;46.204;5.220;2023-07-09T22:30:32;99016.88;;;29.86;49.07
48874;BME280;66155;46.204;5.220;2023-07-09T22:35:33;99017.88;;;29.74;49.21
48874;BME280;66155;46.204;5.220;2023-07-09T22:40:34;99023.94;;;29.68;49.56
48874;BME280;66155;46.204;5.220;2023-07-09T22:45:35;99030.31;;;29.56;50.12
48874;BME280;66155;46.204;5.220;2023-07-09T22:50:38;99030.50;;;29.40;50.44
48874;BME280;66155;46.204;5.220;2023-07-09T22:55:40;99030.09;;;29.38;50.27
48874;BME280;66155;46.204;5.220;2023-07-09T23:00:44;99039.97;;;29.30;50.85
48874;BME280;66155;46.204;5.220;2023-07-09T23:05:47;99052.44;;;29.15;50.97
48874;BME280;66155;46.204;5.220;2023-07-09T23:10:50;99064.13;;;29.04;51.32
48874;BME280;66155;46.204;5.220;2023-07-09T23:15:51;99058.53;;;28.89;51.53
48874;BME280;66155;46.204;5.220;2023-07-09T23:20:52;99074.00;;;28.73;52.63
48874;BME280;66155;46.204;5.220;2023-07-09T23:25:54;99063.31;;;28.53;52.98
48874;BME280;66155;46.204;5.220;2023-07-09T23:30:56;99085.00;;;28.44;52.95
48874;BME280;66155;46.204;5.220;2023-07-09T23:36:01;99088.13;;;28.27;53.50
48874;BME280;66155;46.204;5.220;2023-07-09T23:41:08;99077.16;;;28.13;54.13
48874;BME280;66155;46.204;5.220;2023-07-09T23:46:13;99087.44;;;28.11;53.75
48874;BME280;66155;46.204;5.220;2023-07-09T23:51:14;99110.47;;;28.15;53.53
48874;BME280;66155;46.204;5.220;2023-07-09T23:56:26;99101.97;;;28.10;54.43
